sensor_id;sensor_type;location;lat;lon;timestamp;P1;durP1;ratioP1;P2;durP2;ratioP2
52031;SDS011;38044;45.148;39.604;2024-01-30T00:02:14;8.65;;;5.63;;
52031;SDS011;38044;45.148;39.604;2024-01-30T00:04:40;9.50;;;5.78;;
52031;SDS011;38044;45.148;39.604;2024-01-30T00:07:06;7.40;;;5.00;;
52031;SDS011;38044;45.148;39.604;2024-01-30T00:09:32;9.40;;;5.53;;
52031;SDS011;38044;45.148;39.604;2024-01-30T00:11:58;8.63;;;5.35;;
52031;SDS011;38044;45.148;39.604;2024-01-30T00:14:24;7.68;;;5.63;;
52031;SDS011;38044;45.148;39.604;2024-01-30T00:16:50;8.50;;;5.90;;
52031;SDS011;38044;45.148;39.604;2024-01-30T00:19:17;7.05;;;5.10;;
52031;SDS011;38044;45.148;39.604;2024-01-30T00:21:43;7.65;;;5.45;;
52031;SDS011;38044;45.148;39.604;2024-01-30T00:24:09;8.60;;;5.32;;
52031;SDS011;38044;45.148;39.604;2024-01-30T00:26:35;7.10;;;4.88;;
52031;SDS011;38044;45.148;39.604;2024-01-30T00:29:00;7.97;;;5.25;;
52031;SDS011;38044;45.148;39.604;2024-01-30T00:31:27;8.15;;;4.68;;
52031;SDS011;38044;45.148;39.604;2024-01-30T00:33:52;7.00;;;5.50;;
52031;SDS011;38044;45.148;39.604;2024-01-30T00:36:18;9.38;;;5.05;;
52031;SDS011;38044;45.148;39.604;2024-01-30T00:38:44;6.95;;;4.50;;
52031;SDS011;38044;45.148;39.604;2024-01-30T00:41:10;7.65;;;4.35;;
52031;SDS011;38044;45.148;39.604;2024-01-30T00:43:36;8.05;;;5.53;;
52031;SDS011;38044;45.148;39.604;2024-01-30T00:46:02;7.53;;;4.90;;
52031;SDS011;38044;45.148;39.604;2024-01-30T00:48:28;7.32;;;4.78;;
52031;SDS011;38044;45.148;39.604;2024-01-30T00:50:54;9.82;;;4.80;;
52031;SDS011;38044;45.148;39.604;2024-01-30T00:53:20;6.88;;;5.20;;
52031;SDS011;38044;45.148;39.604;2024-01-30T00:55:46;7.05;;;4.90;;
52031;SDS011;38044;45.148;39.604;2024-01-30T00:58:12;9.82;;;6.07;;
52031;SDS011;38044;45.148;39.604;2024-01-30T01:00:38;9.15;;;4.90;;
52031;SDS011;38044;45.148;39.604;2024-01-30T01:03:05;8.63;;;5.35;;
52031;SDS011;38044;45.148;39.604;2024-01-30T01:05:31;8.18;;;4.78;;
52031;SDS011;38044;45.148;39.604;2024-01-30T01:07:56;6.50;;;5.00;;
52031;SDS011;38044;45.148;39.604;2024-01-30T01:10:22;7.55;;;4.80;;
52031;SDS011;38044;45.148;39.604;2024-01-30T01:12:48;6.20;;;4.50;;
52031;SDS011;38044;45.148;39.604;2024-01-30T01:15:14;8.88;;;4.90;;
52031;SDS011;38044;45.148;39.604;2024-01-30T01:17:40;9.95;;;5.45;;
52031;SDS011;38044;45.148;39.604;2024-01-30T01:20:06;8.55;;;5.07;;
52031;SDS011;38044;45.148;39.604;2024-01-30T01:22:33;8.40;;;4.63;;
52031;SDS011;38044;45.148;39.604;2024-01-30T01:25:00;7.95;;;5.38;;
52031;SDS011;38044;45.148;39.604;2024-01-30T01:27:26;10.05;;;5.57;;
52031;SDS011;38044;45.148;39.604;2024-01-30T01:29:52;9.02;;;5.85;;
52031;SDS011;38044;45.148;39.604;2024-01-30T01:32:18;7.50;;;5.63;;
52031;SDS011;38044;45.148;39.604;2024-01-30T01:34:45;7.65;;;5.28;;
52031;SDS011;38044;45.148;39.604;2024-01-30T01:37:10;8.23;;;5.45;;
52031;SDS011;38044;45.148;39.604;2024-01-30T01:39:36;9.23;;;5.93;;
52031;SDS011;38044;45.148;39.604;2024-01-30T01:42:02;10.65;;;5.75;;
52031;SDS011;38044;45.148;39.604;2024-01-30T01:44:28;7.47;;;4.93;;
52031;SDS011;38044;45.148;39.604;2024-01-30T01:46:57;8.60;;;6.05;;
52031;SDS011;38044;45.148;39.604;2024-01-30T01:49:24;7.95;;;5.68;;
52031;SDS011;38044;45.148;39.604;2024-01-30T01:51:53;8.60;;;5.50;;
52031;SDS011;38044;45.148;39.604;2024-01-30T01:54:21;8.40;;;5.45;;
52031;SDS011;38044;45.148;39.604;2024-01-30T01:56:49;11.25;;;5.82;;
52031;SDS011;38044;45.148;39.604;2024-01-30T01:59:16;7.72;;;4.90;;
52031;SDS011;38044;45.148;39.604;2024-01-30T02:01:43;9.98;;;5.60;;
52031;SDS011;38044;45.148;39.604;2024-01-30T02:04:10;6.55;;;5.10;;
52031;SDS011;38044;45.148;39.604;2024-01-30T02:06:36;8.35;;;5.82;;
52031;SDS011;38044;45.148;39.604;2024-01-30T02:09:03;9.43;;;5.90;;
52031;SDS011;38044;45.148;39.604;2024-01-30T02:11:29;8.25;;;5.78;;
52031;SDS011;38044;45.148;39.604;2024-01-30T02:13:56;9.27;;;5.15;;
52031;SDS011;38044;45.148;39.604;2024-01-30T02:16:21;8.68;;;5.63;;
52031;SDS011;38044;45.148;39.604;2024-01-30T02:18:47;11.43;;;6.30;;
52031;SDS011;38044;45.148;39.604;2024-01-30T02:21:14;8.50;;;5.80;;
52031;SDS011;38044;45.148;39.604;2024-01-30T02:23:41;8.05;;;4.97;;
52031;SDS011;38044;45.148;39.604;2024-01-30T02:26:09;8.07;;;5.70;;
52031;SDS011;38044;45.148;39.604;2024-01-30T02:28:37;7.95;;;5.03;;
52031;SDS011;38044;45.148;39.604;2024-01-30T02:31:03;9.30;;;5.72;;
52031;SDS011;38044;45.148;39.604;2024-01-30T02:33:29;9.85;;;6.10;;
52031;SDS011;38044;45.148;39.604;2024-01-30T02:35:55;9.38;;;5.65;;
52031;SDS011;38044;45.148;39.604;2024-01-30T02:38:21;8.95;;;5.60;;
52031;SDS011;38044;45.148;39.604;2024-01-30T02:40:48;8.98;;;5.75;;
52031;SDS011;38044;45.148;39.604;2024-01-30T02:43:14;10.48;;;6.75;;
52031;SDS011;38044;45.148;39.604;2024-01-30T02:45:41;9.70;;;6.57;;
52031;SDS011;38044;45.148;39.604;2024-01-30T02:48:07;9.50;;;6.03;;
52031;SDS011;38044;45.148;39.604;2024-01-30T02:50:33;9.75;;;6.75;;
52031;SDS011;38044;45.148;39.604;2024-01-30T02:52:59;10.45;;;6.72;;
52031;SDS011;38044;45.148;39.604;2024-01-30T02:55:25;11.15;;;7.20;;
52031;SDS011;38044;45.148;39.604;2024-01-30T02:57:51;9.20;;;6.72;;
52031;SDS011;38044;45.148;39.604;2024-01-30T03:00:16;11.23;;;6.28;;
52031;SDS011;38044;45.148;39.604;2024-01-30T03:02:43;10.55;;;6.53;;
52031;SDS011;38044;45.148;39.604;2024-01-30T03:05:09;11.50;;;6.88;;
52031;SDS011;38044;45.148;39.604;2024-01-30T03:07:34;11.10;;;7.80;;
52031;SDS011;38044;45.148;39.604;2024-01-30T03:10:00;11.75;;;7.60;;
52031;SDS011;38044;45.148;39.604;2024-01-30T03:12:26;11.45;;;6.63;;
52031;SDS011;38044;45.148;39.604;2024-01-30T03:14:52;9.82;;;6.55;;
52031;SDS011;38044;45.148;39.604;2024-01-30T03:17:18;11.23;;;7.10;;
52031;SDS011;38044;45.148;39.604;2024-01-30T03:19:44;13.13;;;6.97;;
52031;SDS011;38044;45.148;39.604;2024-01-30T03:22:09;11.13;;;7.55;;
52031;SDS011;38044;45.148;39.604;2024-01-30T03:24:35;11.98;;;7.78;;
52031;SDS011;38044;45.148;39.604;2024-01-30T03:27:01;9.85;;;6.72;;
52031;SDS011;38044;45.148;39.604;2024-01-30T03:29:27;11.45;;;7.78;;
52031;SDS011;38044;45.148;39.604;2024-01-30T03:31:53;10.98;;;7.53;;
52031;SDS011;38044;45.148;39.604;2024-01-30T03:34:19;11.00;;;8.00;;
52031;SDS011;38044;45.148;39.604;2024-01-30T03:36:45;11.60;;;7.88;;
52031;SDS011;38044;45.148;39.604;2024-01-30T03:39:11;13.57;;;8.48;;
52031;SDS011;38044;45.148;39.604;2024-01-30T03:41:36;10.13;;;7.70;;
52031;SDS011;38044;45.148;39.604;2024-01-30T03:44:02;10.40;;;7.20;;
52031;SDS011;38044;45.148;39.604;2024-01-30T03:46:28;9.85;;;6.90;;
52031;SDS011;38044;45.148;39.604;2024-01-30T03:48:54;11.43;;;6.90;;
52031;SDS011;38044;45.148;39.604;2024-01-30T03:51:20;11.98;;;7.05;;
52031;SDS011;38044;45.148;39.604;2024-01-30T03:53:46;11.57;;;6.50;;
52031;SDS011;38044;45.148;39.604;2024-01-30T03:56:12;11.50;;;7.68;;
52031;SDS011;38044;45.148;39.604;2024-01-30T03:58:41;10.95;;;6.40;;
52031;SDS011;38044;45.148;39.604;2024-01-30T04:01:07;14.82;;;7.38;;
52031;SDS011;38044;45.148;39.604;2024-01-30T04:03:33;9.98;;;7.63;;
52031;SDS011;38044;45.148;39.604;2024-01-30T04:05:59;10.32;;;7.35;;
52031;SDS011;38044;45.148;39.604;2024-01-30T04:08:24;13.07;;;6.95;;
52031;SDS011;38044;45.148;39.604;2024-01-30T04:10:50;10.95;;;7.20;;
52031;SDS011;38044;45.148;39.604;2024-01-30T04:13:16;10.13;;;7.15;;
52031;SDS011;38044;45.148;39.604;2024-01-30T04:15:42;11.80;;;7.53;;
52031;SDS011;38044;45.148;39.604;2024-01-30T04:18:08;9.23;;;6.32;;
52031;SDS011;38044;45.148;39.604;2024-01-30T04:20:34;11.55;;;7.20;;
52031;SDS011;38044;45.148;39.604;2024-01-30T04:23:05;13.52;;;7.97;;
52031;SDS011;38044;45.148;39.604;2024-01-30T04:25:31;11.65;;;7.95;;
52031;SDS011;38044;45.148;39.604;2024-01-30T04:27:57;12.00;;;8.45;;
52031;SDS011;38044;45.148;39.604;2024-01-30T04:30:22;10.32;;;7.38;;
52031;SDS011;38044;45.148;39.604;2024-01-30T04:32:48;11.52;;;7.88;;
52031;SDS011;38044;45.148;39.604;2024-01-30T04:35:14;12.65;;;8.05;;
52031;SDS011;38044;45.148;39.604;2024-01-30T04:37:40;10.38;;;7.32;;
52031;SDS011;38044;45.148;39.604;2024-01-30T04:40:06;10.68;;;6.78;;
52031;SDS011;38044;45.148;39.604;2024-01-30T04:42:32;10.38;;;6.88;;
52031;SDS011;38044;45.148;39.604;2024-01-30T04:44:58;13.38;;;7.53;;
52031;SDS011;38044;45.148;39.604;2024-01-30T04:47:24;11.38;;;7.05;;
52031;SDS011;38044;45.148;39.604;2024-01-30T04:49:51;12.95;;;7.70;;
52031;SDS011;38044;45.148;39.604;2024-01-30T04:52:17;12.68;;;7.72;;
52031;SDS011;38044;45.148;39.604;2024-01-30T04:54:42;13.52;;;8.07;;
52031;SDS011;38044;45.148;39.604;2024-01-30T04:57:08;13.25;;;8.60;;
52031;SDS011;38044;45.148;39.604;2024-01-30T04:59:37;13.23;;;9.23;;
52031;SDS011;38044;45.148;39.604;2024-01-30T05:02:03;13.15;;;7.90;;
52031;SDS011;38044;45.148;39.604;2024-01-30T05:04:29;10.38;;;7.95;;
52031;SDS011;38044;45.148;39.604;2024-01-30T05:06:55;12.93;;;8.15;;
52031;SDS011;38044;45.148;39.604;2024-01-30T05:09:21;13.23;;;9.20;;
52031;SDS011;38044;45.148;39.604;2024-01-30T05:11:47;15.60;;;8.85;;
52031;SDS011;38044;45.148;39.604;2024-01-30T05:14:13;15.13;;;9.35;;
52031;SDS011;38044;45.148;39.604;2024-01-30T05:16:40;16.55;;;8.40;;
52031;SDS011;38044;45.148;39.604;2024-01-30T05:19:06;13.27;;;8.30;;
52031;SDS011;38044;45.148;39.604;2024-01-30T05:21:32;11.85;;;8.43;;
52031;SDS011;38044;45.148;39.604;2024-01-30T05:23:58;13.27;;;7.60;;
52031;SDS011;38044;45.148;39.604;2024-01-30T05:26:24;11.07;;;7.45;;
52031;SDS011;38044;45.148;39.604;2024-01-30T05:28:50;10.55;;;7.43;;
52031;SDS011;38044;45.148;39.604;2024-01-30T05:31:16;10.05;;;6.47;;
52031;SDS011;38044;45.148;39.604;2024-01-30T05:33:42;9.50;;;6.75;;
52031;SDS011;38044;45.148;39.604;2024-01-30T05:36:07;10.60;;;6.63;;
52031;SDS011;38044;45.148;39.604;2024-01-30T05:38:33;18.98;;;9.65;;
52031;SDS011;38044;45.148;39.604;2024-01-30T05:40:59;14.45;;;7.13;;
52031;SDS011;38044;45.148;39.604;2024-01-30T05:43:25;31.60;;;12.10;;
52031;SDS011;38044;45.148;39.604;2024-01-30T05:45:51;22.75;;;7.93;;
52031;SDS011;38044;45.148;39.604;2024-01-30T05:48:18;7.18;;;4.43;;
52031;SDS011;38044;45.148;39.604;2024-01-30T05:50:44;10.27;;;5.78;;
52031;SDS011;38044;45.148;39.604;2024-01-30T05:53:10;8.00;;;4.82;;
52031;SDS011;38044;45.148;39.604;2024-01-30T05:55:36;9.27;;;5.45;;
52031;SDS011;38044;45.148;39.604;2024-01-30T05:58:02;11.00;;;6.10;;
52031;SDS011;38044;45.148;39.604;2024-01-30T06:00:29;9.27;;;4.28;;
52031;SDS011;38044;45.148;39.604;2024-01-30T06:02:55;7.45;;;4.57;;
52031;SDS011;38044;45.148;39.604;2024-01-30T06:05:21;7.20;;;4.45;;
52031;SDS011;38044;45.148;39.604;2024-01-30T06:07:46;7.28;;;4.85;;
52031;SDS011;38044;45.148;39.604;2024-01-30T06:10:12;4.95;;;3.78;;
52031;SDS011;38044;45.148;39.604;2024-01-30T06:12:38;6.72;;;3.60;;
52031;SDS011;38044;45.148;39.604;2024-01-30T06:15:05;5.68;;;3.28;;
52031;SDS011;38044;45.148;39.604;2024-01-30T06:17:31;5.65;;;3.40;;
52031;SDS011;38044;45.148;39.604;2024-01-30T06:19:57;5.90;;;3.80;;
52031;SDS011;38044;45.148;39.604;2024-01-30T06:22:24;5.05;;;4.00;;
52031;SDS011;38044;45.148;39.604;2024-01-30T06:24:50;5.97;;;3.22;;
52031;SDS011;38044;45.148;39.604;2024-01-30T06:27:16;6.57;;;3.60;;
52031;SDS011;38044;45.148;39.604;2024-01-30T06:29:43;5.70;;;3.58;;
52031;SDS011;38044;45.148;39.604;2024-01-30T06:32:08;6.70;;;3.55;;
52031;SDS011;38044;45.148;39.604;2024-01-30T06:34:34;5.88;;;4.25;;
52031;SDS011;38044;45.148;39.604;2024-01-30T06:37:00;5.97;;;2.95;;
52031;SDS011;38044;45.148;39.604;2024-01-30T06:39:26;4.75;;;2.85;;
52031;SDS011;38044;45.148;39.604;2024-01-30T06:41:52;9.00;;;3.95;;
52031;SDS011;38044;45.148;39.604;2024-01-30T06:44:18;6.63;;;3.75;;
52031;SDS011;38044;45.148;39.604;2024-01-30T06:46:44;6.25;;;3.40;;
52031;SDS011;38044;45.148;39.604;2024-01-30T06:49:10;5.57;;;3.30;;
52031;SDS011;38044;45.148;39.604;2024-01-30T06:51:36;4.28;;;3.25;;
52031;SDS011;38044;45.148;39.604;2024-01-30T06:54:01;3.75;;;2.80;;
52031;SDS011;38044;45.148;39.604;2024-01-30T06:56:27;6.10;;;3.65;;
52031;SDS011;38044;45.148;39.604;2024-01-30T06:58:54;5.68;;;3.92;;
52031;SDS011;38044;45.148;39.604;2024-01-30T07:01:19;5.25;;;3.00;;
52031;SDS011;38044;45.148;39.604;2024-01-30T07:03:46;5.85;;;3.65;;
52031;SDS011;38044;45.148;39.604;2024-01-30T07:06:12;5.95;;;3.60;;
52031;SDS011;38044;45.148;39.604;2024-01-30T07:08:38;6.70;;;3.90;;
52031;SDS011;38044;45.148;39.604;2024-01-30T07:11:06;14.75;;;9.75;;
52031;SDS011;38044;45.148;39.604;2024-01-30T07:13:33;19.20;;;13.00;;
52031;SDS011;38044;45.148;39.604;2024-01-30T07:16:00;12.02;;;7.18;;
52031;SDS011;38044;45.148;39.604;2024-01-30T07:18:26;11.00;;;7.85;;
52031;SDS011;38044;45.148;39.604;2024-01-30T07:20:52;4.72;;;3.60;;
52031;SDS011;38044;45.148;39.604;2024-01-30T07:23:17;7.63;;;4.32;;
52031;SDS011;38044;45.148;39.604;2024-01-30T07:25:44;6.78;;;4.82;;
52031;SDS011;38044;45.148;39.604;2024-01-30T07:28:10;13.80;;;9.02;;
52031;SDS011;38044;45.148;39.604;2024-01-30T07:30:37;7.80;;;4.07;;
52031;SDS011;38044;45.148;39.604;2024-01-30T07:33:03;4.90;;;3.53;;
52031;SDS011;38044;45.148;39.604;2024-01-30T07:35:30;6.00;;;3.67;;
52031;SDS011;38044;45.148;39.604;2024-01-30T07:37:55;5.10;;;3.45;;
52031;SDS011;38044;45.148;39.604;2024-01-30T07:40:22;5.18;;;3.58;;
52031;SDS011;38044;45.148;39.604;2024-01-30T07:42:49;4.90;;;3.35;;
52031;SDS011;38044;45.148;39.604;2024-01-30T07:45:15;5.03;;;3.00;;
52031;SDS011;38044;45.148;39.604;2024-01-30T07:47:41;5.50;;;3.20;;
52031;SDS011;38044;45.148;39.604;2024-01-30T07:50:07;5.38;;;3.20;;
52031;SDS011;38044;45.148;39.604;2024-01-30T07:52:34;4.68;;;2.80;;
52031;SDS011;38044;45.148;39.604;2024-01-30T07:55:00;6.03;;;3.15;;
52031;SDS011;38044;45.148;39.604;2024-01-30T07:57:26;5.47;;;3.15;;
52031;SDS011;38044;45.148;39.604;2024-01-30T07:59:51;6.45;;;3.20;;
52031;SDS011;38044;45.148;39.604;2024-01-30T08:02:17;5.07;;;3.00;;
52031;SDS011;38044;45.148;39.604;2024-01-30T08:04:43;4.30;;;2.80;;
52031;SDS011;38044;45.148;39.604;2024-01-30T08:07:13;6.07;;;3.10;;
52031;SDS011;38044;45.148;39.604;2024-01-30T08:09:39;5.50;;;3.20;;
52031;SDS011;38044;45.148;39.604;2024-01-30T08:12:05;5.78;;;3.22;;
52031;SDS011;38044;45.148;39.604;2024-01-30T08:14:31;5.13;;;3.10;;
52031;SDS011;38044;45.148;39.604;2024-01-30T08:16:57;4.72;;;2.95;;
52031;SDS011;38044;45.148;39.604;2024-01-30T08:19:23;6.50;;;3.33;;
52031;SDS011;38044;45.148;39.604;2024-01-30T08:21:49;5.82;;;3.00;;
52031;SDS011;38044;45.148;39.604;2024-01-30T08:24:14;4.03;;;2.92;;
52031;SDS011;38044;45.148;39.604;2024-01-30T08:26:40;6.28;;;2.75;;
52031;SDS011;38044;45.148;39.604;2024-01-30T08:29:06;3.20;;;2.75;;
52031;SDS011;38044;45.148;39.604;2024-01-30T08:31:32;5.38;;;3.42;;
52031;SDS011;38044;45.148;39.604;2024-01-30T08:33:58;5.13;;;3.13;;
52031;SDS011;38044;45.148;39.604;2024-01-30T08:36:24;5.10;;;3.33;;
52031;SDS011;38044;45.148;39.604;2024-01-30T08:38:50;42.08;;;18.98;;
52031;SDS011;38044;45.148;39.604;2024-01-30T08:41:16;7.20;;;4.00;;
52031;SDS011;38044;45.148;39.604;2024-01-30T08:43:42;5.65;;;3.33;;
52031;SDS011;38044;45.148;39.604;2024-01-30T08:46:10;4.65;;;3.05;;
52031;SDS011;38044;45.148;39.604;2024-01-30T08:48:36;8.07;;;4.57;;
52031;SDS011;38044;45.148;39.604;2024-01-30T08:51:02;4.78;;;3.05;;
52031;SDS011;38044;45.148;39.604;2024-01-30T08:53:35;34.25;;;13.48;;
52031;SDS011;38044;45.148;39.604;2024-01-30T08:56:05;12.65;;;5.93;;
52031;SDS011;38044;45.148;39.604;2024-01-30T08:58:32;6.82;;;3.88;;
52031;SDS011;38044;45.148;39.604;2024-01-30T09:00:59;5.22;;;3.40;;
52031;SDS011;38044;45.148;39.604;2024-01-30T09:03:25;6.53;;;3.22;;
52031;SDS011;38044;45.148;39.604;2024-01-30T09:05:52;4.22;;;3.00;;
52031;SDS011;38044;45.148;39.604;2024-01-30T09:08:18;8.52;;;2.80;;
52031;SDS011;38044;45.148;39.604;2024-01-30T09:10:44;8.63;;;3.92;;
52031;SDS011;38044;45.148;39.604;2024-01-30T09:13:10;4.90;;;2.70;;
52031;SDS011;38044;45.148;39.604;2024-01-30T09:15:36;6.22;;;3.15;;
52031;SDS011;38044;45.148;39.604;2024-01-30T09:18:02;7.97;;;3.47;;
52031;SDS011;38044;45.148;39.604;2024-01-30T09:20:27;4.53;;;3.00;;
52031;SDS011;38044;45.148;39.604;2024-01-30T09:22:53;9.40;;;3.42;;
52031;SDS011;38044;45.148;39.604;2024-01-30T09:25:19;3.80;;;2.40;;
52031;SDS011;38044;45.148;39.604;2024-01-30T09:27:46;9.55;;;5.20;;
52031;SDS011;38044;45.148;39.604;2024-01-30T09:30:12;3.58;;;2.67;;
52031;SDS011;38044;45.148;39.604;2024-01-30T09:32:39;4.13;;;3.05;;
52031;SDS011;38044;45.148;39.604;2024-01-30T09:35:05;4.80;;;2.72;;
52031;SDS011;38044;45.148;39.604;2024-01-30T09:37:31;2.10;;;1.85;;
52031;SDS011;38044;45.148;39.604;2024-01-30T09:39:57;3.60;;;2.40;;
52031;SDS011;38044;45.148;39.604;2024-01-30T09:44:53;4.82;;;2.78;;
52031;SDS011;38044;45.148;39.604;2024-01-30T09:47:20;3.70;;;2.40;;
52031;SDS011;38044;45.148;39.604;2024-01-30T09:49:46;3.78;;;2.67;;
52031;SDS011;38044;45.148;39.604;2024-01-30T09:52:14;3.88;;;2.20;;
52031;SDS011;38044;45.148;39.604;2024-01-30T09:54:40;3.97;;;2.17;;
52031;SDS011;38044;45.148;39.604;2024-01-30T09:57:07;3.75;;;2.38;;
52031;SDS011;38044;45.148;39.604;2024-01-30T09:59:33;3.92;;;2.35;;
52031;SDS011;38044;45.148;39.604;2024-01-30T10:01:59;7.43;;;2.90;;
52031;SDS011;38044;45.148;39.604;2024-01-30T10:04:25;3.45;;;2.13;;
52031;SDS011;38044;45.148;39.604;2024-01-30T10:06:51;4.15;;;2.50;;
52031;SDS011;38044;45.148;39.604;2024-01-30T10:09:17;3.47;;;2.45;;
52031;SDS011;38044;45.148;39.604;2024-01-30T10:11:43;3.63;;;2.53;;
52031;SDS011;38044;45.148;39.604;2024-01-30T10:14:09;4.53;;;2.45;;
52031;SDS011;38044;45.148;39.604;2024-01-30T10:16:35;4.25;;;2.28;;
52031;SDS011;38044;45.148;39.604;2024-01-30T10:19:01;2.20;;;1.92;;
52031;SDS011;38044;45.148;39.604;2024-01-30T10:21:29;3.45;;;1.98;;
52031;SDS011;38044;45.148;39.604;2024-01-30T10:23:56;2.65;;;1.65;;
52031;SDS011;38044;45.148;39.604;2024-01-30T10:26:22;3.00;;;1.73;;
52031;SDS011;38044;45.148;39.604;2024-01-30T10:28:48;3.83;;;1.73;;
52031;SDS011;38044;45.148;39.604;2024-01-30T10:31:17;4.15;;;1.60;;
52031;SDS011;38044;45.148;39.604;2024-01-30T10:33:46;3.05;;;1.63;;
52031;SDS011;38044;45.148;39.604;2024-01-30T10:36:13;3.08;;;1.85;;
52031;SDS011;38044;45.148;39.604;2024-01-30T10:38:42;2.80;;;2.00;;
52031;SDS011;38044;45.148;39.604;2024-01-30T10:41:11;4.40;;;2.10;;
52031;SDS011;38044;45.148;39.604;2024-01-30T10:43:42;3.13;;;2.10;;
52031;SDS011;38044;45.148;39.604;2024-01-30T10:46:20;9.68;;;2.70;;
52031;SDS011;38044;45.148;39.604;2024-01-30T10:48:57;5.32;;;2.90;;
52031;SDS011;38044;45.148;39.604;2024-01-30T10:51:27;4.22;;;2.42;;
52031;SDS011;38044;45.148;39.604;2024-01-30T10:53:53;3.13;;;2.05;;
52031;SDS011;38044;45.148;39.604;2024-01-30T10:56:21;3.92;;;1.95;;
52031;SDS011;38044;45.148;39.604;2024-01-30T10:58:48;4.88;;;2.40;;
52031;SDS011;38044;45.148;39.604;2024-01-30T11:01:19;4.00;;;2.67;;
52031;SDS011;38044;45.148;39.604;2024-01-30T11:03:52;5.47;;;2.72;;
52031;SDS011;38044;45.148;39.604;2024-01-30T11:06:21;4.57;;;3.38;;
52031;SDS011;38044;45.148;39.604;2024-01-30T11:09:00;6.32;;;2.88;;
52031;SDS011;38044;45.148;39.604;2024-01-30T11:14:27;9.50;;;3.33;;
52031;SDS011;38044;45.148;39.604;2024-01-30T11:16:58;5.10;;;2.97;;
52031;SDS011;38044;45.148;39.604;2024-01-30T11:19:25;6.70;;;2.75;;
52031;SDS011;38044;45.148;39.604;2024-01-30T11:21:54;4.95;;;2.75;;
52031;SDS011;38044;45.148;39.604;2024-01-30T11:24:22;6.20;;;2.70;;
52031;SDS011;38044;45.148;39.604;2024-01-30T11:26:58;9.20;;;3.05;;
52031;SDS011;38044;45.148;39.604;2024-01-30T11:29:25;9.43;;;5.22;;
52031;SDS011;38044;45.148;39.604;2024-01-30T11:31:52;7.43;;;4.20;;
52031;SDS011;38044;45.148;39.604;2024-01-30T11:34:20;5.78;;;3.97;;
52031;SDS011;38044;45.148;39.604;2024-01-30T11:36:56;7.20;;;4.20;;
52031;SDS011;38044;45.148;39.604;2024-01-30T11:39:29;5.75;;;2.50;;
52031;SDS011;38044;45.148;39.604;2024-01-30T11:41:55;5.18;;;3.35;;
52031;SDS011;38044;45.148;39.604;2024-01-30T11:44:21;7.10;;;4.03;;
52031;SDS011;38044;45.148;39.604;2024-01-30T11:46:48;11.20;;;5.07;;
52031;SDS011;38044;45.148;39.604;2024-01-30T11:49:14;9.38;;;4.90;;
52031;SDS011;38044;45.148;39.604;2024-01-30T11:51:42;8.73;;;4.80;;
52031;SDS011;38044;45.148;39.604;2024-01-30T11:54:08;6.90;;;4.82;;
52031;SDS011;38044;45.148;39.604;2024-01-30T11:56:34;6.13;;;3.72;;
52031;SDS011;38044;45.148;39.604;2024-01-30T11:59:01;7.57;;;5.15;;
52031;SDS011;38044;45.148;39.604;2024-01-30T12:01:27;15.60;;;6.35;;
52031;SDS011;38044;45.148;39.604;2024-01-30T12:03:53;12.05;;;4.93;;
52031;SDS011;38044;45.148;39.604;2024-01-30T12:06:19;7.97;;;4.57;;
52031;SDS011;38044;45.148;39.604;2024-01-30T12:08:57;11.65;;;5.78;;
52031;SDS011;38044;45.148;39.604;2024-01-30T12:11:25;10.05;;;5.80;;
52031;SDS011;38044;45.148;39.604;2024-01-30T12:13:52;10.15;;;5.90;;
52031;SDS011;38044;45.148;39.604;2024-01-30T12:16:20;5.93;;;3.08;;
52031;SDS011;38044;45.148;39.604;2024-01-30T12:18:46;4.57;;;2.90;;
52031;SDS011;38044;45.148;39.604;2024-01-30T12:21:12;4.05;;;2.80;;
52031;SDS011;38044;45.148;39.604;2024-01-30T12:23:38;4.43;;;2.63;;
52031;SDS011;38044;45.148;39.604;2024-01-30T12:26:04;3.13;;;2.30;;
52031;SDS011;38044;45.148;39.604;2024-01-30T12:28:32;4.07;;;2.70;;
52031;SDS011;38044;45.148;39.604;2024-01-30T12:31:02;6.32;;;4.15;;
52031;SDS011;38044;45.148;39.604;2024-01-30T12:33:29;12.20;;;6.00;;
52031;SDS011;38044;45.148;39.604;2024-01-30T12:35:56;17.23;;;8.07;;
52031;SDS011;38044;45.148;39.604;2024-01-30T12:38:24;5.65;;;3.45;;
52031;SDS011;38044;45.148;39.604;2024-01-30T12:40:59;3.90;;;2.22;;
52031;SDS011;38044;45.148;39.604;2024-01-30T12:43:36;3.17;;;2.00;;
52031;SDS011;38044;45.148;39.604;2024-01-30T12:46:02;2.97;;;2.17;;
52031;SDS011;38044;45.148;39.604;2024-01-30T12:48:28;13.65;;;3.08;;
52031;SDS011;38044;45.148;39.604;2024-01-30T12:50:55;11.57;;;2.80;;
52031;SDS011;38044;45.148;39.604;2024-01-30T12:53:21;8.20;;;2.30;;
52031;SDS011;38044;45.148;39.604;2024-01-30T12:55:47;5.10;;;2.10;;
52031;SDS011;38044;45.148;39.604;2024-01-30T12:58:15;3.75;;;1.88;;
52031;SDS011;38044;45.148;39.604;2024-01-30T13:00:41;2.97;;;1.73;;
52031;SDS011;38044;45.148;39.604;2024-01-30T13:03:10;7.82;;;2.03;;
52031;SDS011;38044;45.148;39.604;2024-01-30T13:05:36;7.40;;;1.73;;
52031;SDS011;38044;45.148;39.604;2024-01-30T13:08:02;3.72;;;1.95;;
52031;SDS011;38044;45.148;39.604;2024-01-30T13:10:28;7.75;;;2.15;;
52031;SDS011;38044;45.148;39.604;2024-01-30T13:12:54;5.43;;;1.88;;
52031;SDS011;38044;45.148;39.604;2024-01-30T13:15:20;4.13;;;1.55;;
52031;SDS011;38044;45.148;39.604;2024-01-30T13:17:48;4.68;;;1.67;;
52031;SDS011;38044;45.148;39.604;2024-01-30T13:20:15;7.45;;;2.38;;
52031;SDS011;38044;45.148;39.604;2024-01-30T13:22:46;4.70;;;2.22;;
52031;SDS011;38044;45.148;39.604;2024-01-30T13:25:14;5.78;;;2.10;;
52031;SDS011;38044;45.148;39.604;2024-01-30T13:27:40;7.05;;;1.90;;
52031;SDS011;38044;45.148;39.604;2024-01-30T13:30:06;2.55;;;1.50;;
52031;SDS011;38044;45.148;39.604;2024-01-30T13:32:36;4.75;;;1.98;;
52031;SDS011;38044;45.148;39.604;2024-01-30T13:35:02;9.48;;;2.88;;
52031;SDS011;38044;45.148;39.604;2024-01-30T13:37:28;8.93;;;2.15;;
52031;SDS011;38044;45.148;39.604;2024-01-30T13:39:55;8.20;;;2.47;;
52031;SDS011;38044;45.148;39.604;2024-01-30T13:42:21;4.07;;;2.53;;
52031;SDS011;38044;45.148;39.604;2024-01-30T13:44:48;4.65;;;3.10;;
52031;SDS011;38044;45.148;39.604;2024-01-30T13:47:13;7.32;;;3.85;;
52031;SDS011;38044;45.148;39.604;2024-01-30T13:49:39;7.22;;;2.50;;
52031;SDS011;38044;45.148;39.604;2024-01-30T13:52:05;9.60;;;2.85;;
52031;SDS011;38044;45.148;39.604;2024-01-30T13:54:33;3.92;;;2.17;;
52031;SDS011;38044;45.148;39.604;2024-01-30T13:57:02;7.28;;;3.00;;
52031;SDS011;38044;45.148;39.604;2024-01-30T13:59:28;14.35;;;7.00;;
52031;SDS011;38044;45.148;39.604;2024-01-30T14:01:54;26.25;;;14.45;;
52031;SDS011;38044;45.148;39.604;2024-01-30T14:04:19;24.60;;;16.45;;
52031;SDS011;38044;45.148;39.604;2024-01-30T14:06:45;14.18;;;8.70;;
52031;SDS011;38044;45.148;39.604;2024-01-30T14:09:11;10.02;;;6.15;;
52031;SDS011;38044;45.148;39.604;2024-01-30T14:11:40;7.05;;;4.78;;
52031;SDS011;38044;45.148;39.604;2024-01-30T14:14:06;5.85;;;4.03;;
52031;SDS011;38044;45.148;39.604;2024-01-30T14:16:32;9.57;;;4.50;;
52031;SDS011;38044;45.148;39.604;2024-01-30T14:18:58;13.02;;;4.32;;
52031;SDS011;38044;45.148;39.604;2024-01-30T14:21:24;7.43;;;3.75;;
52031;SDS011;38044;45.148;39.604;2024-01-30T14:23:50;10.95;;;4.40;;
52031;SDS011;38044;45.148;39.604;2024-01-30T14:26:15;7.88;;;4.25;;
52031;SDS011;38044;45.148;39.604;2024-01-30T14:28:41;11.35;;;4.47;;
52031;SDS011;38044;45.148;39.604;2024-01-30T14:31:08;13.75;;;3.75;;
52031;SDS011;38044;45.148;39.604;2024-01-30T14:33:34;13.73;;;4.85;;